createdAt,value
2024-02-01T00:00:49.444Z,35.63
2024-02-01T00:01:49.419Z,35.59
2024-02-01T00:02:49.513Z,35.62
2024-02-01T00:03:49.432Z,35.63
2024-02-01T00:04:49.462Z,35.63
2024-02-01T00:05:49.524Z,35.64
2024-02-01T00:06:49.609Z,35.63
2024-02-01T00:07:49.467Z,35.59
2024-02-01T00:08:49.499Z,35.59
2024-02-01T00:09:49.467Z,35.60
2024-02-01T00:10:49.471Z,35.60
2024-02-01T00:11:49.490Z,35.63
2024-02-01T00:12:49.473Z,35.64
2024-02-01T00:13:49.493Z,35.57
2024-02-01T00:14:49.578Z,35.59
2024-02-01T00:15:49.510Z,35.59
2024-02-01T00:16:49.489Z,35.64
2024-02-01T00:17:49.621Z,35.59
2024-02-01T00:18:49.657Z,35.55
2024-02-01T00:19:49.542Z,35.59
2024-02-01T00:20:49.964Z,35.57
2024-02-01T00:21:49.521Z,35.59
2024-02-01T00:22:49.523Z,35.61
2024-02-01T00:23:49.552Z,35.61
2024-02-01T00:24:49.538Z,35.59
2024-02-01T00:25:49.558Z,35.60
2024-02-01T00:26:49.600Z,35.61
2024-02-01T00:27:49.602Z,35.60
2024-02-01T00:28:49.587Z,35.64
2024-02-01T00:29:49.656Z,35.58
2024-02-01T00:30:49.620Z,35.58
2024-02-01T00:31:49.644Z,35.62
2024-02-01T00:32:49.754Z,35.57
2024-02-01T00:33:49.804Z,35.60
2024-02-01T00:34:49.958Z,35.58
2024-02-01T00:35:49.760Z,35.56
2024-02-01T00:36:49.710Z,35.62
2024-02-01T00:37:49.713Z,35.58
2024-02-01T00:38:49.740Z,35.60
2024-02-01T00:39:49.738Z,35.55
2024-02-01T00:40:49.750Z,35.58
2024-02-01T00:41:49.881Z,35.56
2024-02-01T00:42:49.834Z,35.53
2024-02-01T00:43:49.778Z,35.56
2024-02-01T00:44:49.812Z,35.53
2024-02-01T00:45:49.821Z,35.58
2024-02-01T00:46:49.828Z,35.57
2024-02-01T00:47:49.975Z,35.54
2024-02-01T00:48:49.948Z,35.57
2024-02-01T00:49:49.918Z,35.54
2024-02-01T00:50:49.923Z,35.56
2024-02-01T00:51:49.931Z,35.54
2024-02-01T00:52:49.967Z,35.54
2024-02-01T00:53:50.002Z,35.54
2024-02-01T00:54:51.960Z,35.54
2024-02-01T00:55:50.030Z,35.54
2024-02-01T00:56:50.093Z,35.51
2024-02-01T00:57:50.074Z,35.56
2024-02-01T00:58:50.100Z,35.51
2024-02-01T00:59:50.246Z,35.55
2024-02-01T01:00:50.363Z,35.54
2024-02-01T01:01:50.209Z,35.57
2024-02-01T01:02:50.226Z,35.51
2024-02-01T01:03:50.229Z,35.55
2024-02-01T01:04:50.313Z,35.54
2024-02-01T01:05:50.338Z,35.52
2024-02-01T01:06:50.287Z,35.54
2024-02-01T01:07:50.358Z,35.54
2024-02-01T01:08:50.389Z,35.52
2024-02-01T01:09:50.363Z,35.55
2024-02-01T01:10:50.397Z,35.51
2024-02-01T01:11:50.443Z,35.51
2024-02-01T01:12:50.426Z,35.48
2024-02-01T01:13:50.450Z,35.54
2024-02-01T01:14:50.493Z,35.50
2024-02-01T01:15:50.495Z,35.51
2024-02-01T01:16:50.576Z,35.54
2024-02-01T01:17:50.607Z,35.48
2024-02-01T01:18:50.738Z,35.48
2024-02-01T01:19:50.687Z,35.44
2024-02-01T01:20:50.660Z,35.52
2024-02-01T01:21:50.649Z,35.48
2024-02-01T01:22:50.640Z,35.46
2024-02-01T01:23:50.700Z,35.49
2024-02-01T01:24:50.688Z,35.49
2024-02-01T01:25:50.739Z,35.49
2024-02-01T01:26:50.751Z,35.51
2024-02-01T01:27:50.774Z,35.47
2024-02-01T01:28:50.780Z,35.50
2024-02-01T01:29:50.854Z,35.45
2024-02-01T01:30:50.840Z,35.44
2024-02-01T01:31:50.888Z,35.48
2024-02-01T01:32:51.004Z,35.47
2024-02-01T01:33:51.127Z,35.49
2024-02-01T01:34:50.980Z,35.45
2024-02-01T01:35:51.018Z,35.46
2024-02-01T01:36:50.988Z,35.49
2024-02-01T01:37:51.017Z,35.48
2024-02-01T01:38:51.085Z,35.45
2024-02-01T01:39:51.072Z,35.45
2024-02-01T01:40:51.095Z,35.44
2024-02-01T01:41:51.176Z,35.42
2024-02-01T01:42:51.161Z,35.42
2024-02-01T01:43:51.179Z,35.44
2024-02-01T01:44:51.223Z,35.49
2024-02-01T01:45:51.235Z,35.46
2024-02-01T01:46:51.246Z,35.45
2024-02-01T01:47:51.385Z,35.46
2024-02-01T01:48:51.538Z,35.44
2024-02-01T01:49:51.435Z,35.40
2024-02-01T01:50:51.379Z,35.45
2024-02-01T01:51:51.411Z,35.44
2024-02-01T01:52:51.425Z,35.48
2024-02-01T01:53:51.470Z,35.42
2024-02-01T01:54:51.500Z,35.44
2024-02-01T01:55:51.547Z,35.42
2024-02-01T01:56:51.647Z,35.46
2024-02-01T01:57:51.606Z,35.45
2024-02-01T01:58:51.635Z,35.43
2024-02-01T01:59:51.731Z,35.43
2024-02-01T02:00:51.759Z,35.42
2024-02-01T02:01:51.770Z,35.42
2024-02-01T02:02:51.817Z,35.46
2024-02-01T02:03:51.877Z,35.38
2024-02-01T02:04:51.874Z,35.38
2024-02-01T02:05:51.935Z,35.44
2024-02-01T02:06:52.054Z,35.44
2024-02-01T02:07:52.002Z,35.39
2024-02-01T02:08:52.083Z,35.43
2024-02-01T02:09:52.057Z,35.39
2024-02-01T02:10:52.090Z,35.44
2024-02-01T02:11:52.199Z,35.43
2024-02-01T02:12:52.185Z,35.39
2024-02-01T02:13:52.244Z,35.43
2024-02-01T02:14:52.296Z,35.39
2024-02-01T02:15:52.310Z,35.43
2024-02-01T02:16:52.381Z,35.40
2024-02-01T02:17:52.617Z,35.41
2024-02-01T02:18:52.566Z,35.38
2024-02-01T02:19:52.467Z,35.43
2024-02-01T02:20:52.565Z,35.41
2024-02-01T02:21:52.562Z,35.41
2024-02-01T02:22:52.615Z,35.41
2024-02-01T02:23:52.674Z,35.45
2024-02-01T02:24:52.698Z,35.36
2024-02-01T02:25:52.743Z,35.39
2024-02-01T02:26:52.807Z,35.39
2024-02-01T02:27:52.818Z,35.41
2024-02-01T02:28:52.853Z,35.40
2024-02-01T02:29:52.914Z,35.40
2024-02-01T02:30:52.930Z,35.37
2024-02-01T02:31:52.976Z,35.45
2024-02-01T02:32:53.069Z,35.51
2024-02-01T02:33:53.240Z,35.51
2024-02-01T02:34:53.123Z,35.52
2024-02-01T02:35:53.201Z,35.59
2024-02-01T02:36:53.175Z,35.51
2024-02-01T02:37:53.199Z,35.48
2024-02-01T02:38:53.221Z,35.49
2024-02-01T02:39:53.260Z,35.46
2024-02-01T02:40:53.292Z,35.43
2024-02-01T02:41:53.347Z,35.44
2024-02-01T02:42:53.333Z,35.43
2024-02-01T02:43:53.386Z,35.37
2024-02-01T02:44:53.444Z,35.34
2024-02-01T02:45:53.436Z,35.42
2024-02-01T02:46:53.460Z,35.44
2024-02-01T02:47:53.583Z,35.39
2024-02-01T02:48:53.599Z,35.38
2024-02-01T02:49:53.568Z,35.38
2024-02-01T02:50:53.623Z,35.35
2024-02-01T02:51:53.576Z,35.36
2024-02-01T02:52:53.582Z,35.39
2024-02-01T02:53:53.656Z,35.30
2024-02-01T02:54:53.617Z,35.31
2024-02-01T02:55:53.637Z,35.30
2024-02-01T02:56:53.660Z,35.31
2024-02-01T02:57:53.665Z,35.29
2024-02-01T02:58:53.671Z,35.23
2024-02-01T02:59:53.714Z,35.25
2024-02-01T03:00:53.716Z,35.25
2024-02-01T03:01:53.708Z,35.21
2024-02-01T03:02:53.734Z,35.22
2024-02-01T03:03:53.753Z,35.19
2024-02-01T03:04:53.739Z,35.18
2024-02-01T03:05:53.789Z,35.13
2024-02-01T03:06:53.819Z,35.15
2024-02-01T03:07:53.748Z,35.16
2024-02-01T03:08:53.814Z,35.12
2024-02-01T03:09:53.762Z,35.12
2024-02-01T03:10:53.768Z,35.13
2024-02-01T03:11:53.799Z,35.11
2024-02-01T03:12:53.781Z,35.11
2024-02-01T03:13:53.817Z,35.08
2024-02-01T03:14:53.828Z,35.08
2024-02-01T03:15:53.862Z,35.07
2024-02-01T03:16:53.895Z,35.03
2024-02-01T03:17:54.022Z,35.01
2024-02-01T03:18:54.169Z,34.97
2024-02-01T03:19:54.118Z,35.01
2024-02-01T03:20:54.085Z,34.96
2024-02-01T03:21:54.107Z,34.97
2024-02-01T03:22:54.130Z,34.93
2024-02-01T03:23:54.209Z,34.97
2024-02-01T03:24:54.193Z,34.94
2024-02-01T03:25:54.254Z,34.91
2024-02-01T03:26:54.344Z,34.93
2024-02-01T03:27:54.330Z,34.88
2024-02-01T03:28:54.424Z,34.91
2024-02-01T03:29:54.502Z,34.87
2024-02-01T03:30:54.491Z,34.90
2024-02-01T03:31:54.566Z,34.86
2024-02-01T03:32:54.680Z,34.87
2024-02-01T03:33:54.764Z,34.84
2024-02-01T03:34:54.752Z,34.83
2024-02-01T03:35:54.813Z,34.82
2024-02-01T03:36:54.866Z,34.82
2024-02-01T03:37:54.915Z,34.82
2024-02-01T03:38:55.016Z,34.82
2024-02-01T03:39:55.047Z,34.83
2024-02-01T03:40:55.106Z,34.79
2024-02-01T03:41:55.195Z,34.75
2024-02-01T03:42:55.260Z,34.74
2024-02-01T03:43:55.323Z,34.72
2024-02-01T03:44:55.444Z,34.74
2024-02-01T03:45:55.478Z,34.76
2024-02-01T03:46:55.742Z,34.70
2024-02-01T03:47:55.746Z,34.72
2024-02-01T03:48:55.993Z,34.75
2024-02-01T03:49:55.903Z,34.68
2024-02-01T03:50:55.861Z,34.64
2024-02-01T03:51:55.888Z,34.68
2024-02-01T03:52:56.038Z,34.64
2024-02-01T03:53:56.070Z,34.63
2024-02-01T03:54:56.089Z,34.64
2024-02-01T03:55:56.166Z,34.64
2024-02-01T03:56:56.289Z,34.63
2024-02-01T03:57:56.301Z,34.67
2024-02-01T03:58:56.370Z,34.60
2024-02-01T03:59:56.526Z,34.59
2024-02-01T04:00:56.504Z,34.56
2024-02-01T04:01:56.591Z,34.59
2024-02-01T04:02:56.659Z,34.61
2024-02-01T04:03:56.717Z,34.59
2024-02-01T04:04:56.772Z,34.57
2024-02-01T04:05:56.854Z,34.54
2024-02-01T04:06:57.017Z,34.54
2024-02-01T04:07:56.955Z,34.52
2024-02-01T04:08:57.081Z,34.52
2024-02-01T04:09:57.083Z,34.53
2024-02-01T04:10:57.161Z,34.50
2024-02-01T04:11:57.239Z,34.51
2024-02-01T04:12:57.294Z,34.56
2024-02-01T04:13:57.368Z,34.47
2024-02-01T04:14:57.486Z,34.50
2024-02-01T04:16:10.460Z,34.49
2024-02-01T04:16:57.494Z,34.52
2024-02-01T04:17:57.555Z,34.51
2024-02-01T04:18:57.676Z,34.49
2024-02-01T04:19:57.531Z,34.44
2024-02-01T04:20:57.578Z,34.47
2024-02-01T04:21:57.494Z,34.45
2024-02-01T04:22:57.500Z,34.48
2024-02-01T04:23:57.586Z,34.44
2024-02-01T04:24:57.508Z,34.47
2024-02-01T04:25:57.593Z,34.44
2024-02-01T04:26:58.236Z,34.48
2024-02-01T04:27:57.586Z,34.40
2024-02-01T04:28:57.505Z,34.44
2024-02-01T04:29:57.571Z,34.43
2024-02-01T04:30:57.500Z,34.44
2024-02-01T04:31:57.518Z,34.42
2024-02-01T04:32:57.575Z,34.47
2024-02-01T04:33:57.577Z,34.44
2024-02-01T04:34:57.577Z,34.40
2024-02-01T04:35:57.527Z,34.38
2024-02-01T04:36:57.535Z,34.36
2024-02-01T04:37:57.628Z,34.37
2024-02-01T04:38:57.543Z,34.38
2024-02-01T04:39:57.534Z,34.34
2024-02-01T04:40:57.603Z,34.37
2024-02-01T04:41:57.656Z,34.34
2024-02-01T04:42:57.719Z,34.39
2024-02-01T04:43:57.769Z,34.34
2024-02-01T04:44:57.839Z,34.37
2024-02-01T04:45:57.889Z,34.33
2024-02-01T04:46:57.957Z,34.31
2024-02-01T04:47:58.095Z,34.37
2024-02-01T04:48:58.179Z,34.34
2024-02-01T04:49:58.152Z,34.29
2024-02-01T04:50:58.229Z,34.33
2024-02-01T04:51:58.263Z,34.29
2024-02-01T04:52:58.303Z,34.33
2024-02-01T04:53:58.422Z,34.32
2024-02-01T04:55:05.739Z,34.35
2024-02-01T04:56:05.730Z,34.32
2024-02-01T04:57:05.761Z,34.34
2024-02-01T04:58:05.726Z,34.34
2024-02-01T04:59:05.727Z,34.31
2024-02-01T05:00:05.758Z,34.33
2024-02-01T05:01:05.792Z,34.29
2024-02-01T05:02:05.952Z,34.34
2024-02-01T05:03:05.881Z,34.30
2024-02-01T05:04:05.875Z,34.29
2024-02-01T05:05:05.746Z,34.26
2024-02-01T05:06:05.843Z,34.28
2024-02-01T05:07:05.851Z,34.26
2024-02-01T05:08:05.732Z,34.25
2024-02-01T05:09:05.785Z,34.21
2024-02-01T05:10:05.791Z,34.21
2024-02-01T05:11:05.991Z,34.22
2024-02-01T05:12:05.841Z,34.19
2024-02-01T05:13:05.756Z,34.20
2024-02-01T05:14:05.739Z,34.21
2024-02-01T05:15:05.752Z,34.17
2024-02-01T05:16:05.747Z,34.19
2024-02-01T05:17:05.761Z,34.23
2024-02-01T05:18:06.164Z,34.20
2024-02-01T05:19:06.299Z,34.20
2024-02-01T05:20:05.940Z,34.17
2024-02-01T05:21:05.943Z,34.23
2024-02-01T05:22:05.959Z,34.16
2024-02-01T05:23:06.050Z,34.21
2024-02-01T05:24:06.089Z,34.17
2024-02-01T05:25:06.153Z,34.21
2024-02-01T05:26:06.218Z,34.21
2024-02-01T05:27:06.288Z,34.13
2024-02-01T05:28:06.326Z,34.19
2024-02-01T05:29:06.387Z,34.16
2024-02-01T05:30:06.464Z,34.19
2024-02-01T05:31:06.520Z,34.19
2024-02-01T05:32:06.610Z,34.17
2024-02-01T05:33:06.662Z,34.15
2024-02-01T05:34:06.752Z,34.19
2024-02-01T05:35:06.721Z,34.16
2024-02-01T05:36:06.841Z,34.11
2024-02-01T05:37:06.838Z,34.14
2024-02-01T05:38:07.333Z,34.15
2024-02-01T05:39:07.062Z,34.12
2024-02-01T05:40:07.002Z,34.14
2024-02-01T05:41:07.070Z,34.12
2024-02-01T05:42:07.147Z,34.12
2024-02-01T05:43:07.176Z,34.15
2024-02-01T05:44:07.233Z,34.16
2024-02-01T05:45:07.309Z,34.14
2024-02-01T05:46:07.337Z,34.14
2024-02-01T05:47:07.443Z,34.11
2024-02-01T05:48:07.564Z,34.10
2024-02-01T05:49:07.643Z,34.09
2024-02-01T05:50:07.563Z,34.06
2024-02-01T05:51:07.688Z,34.11
2024-02-01T05:52:07.672Z,34.10
2024-02-01T05:53:07.726Z,34.10
2024-02-01T05:54:07.803Z,34.08
2024-02-01T05:55:07.856Z,34.07
2024-02-01T05:56:07.883Z,34.07
2024-02-01T05:57:07.954Z,34.09
2024-02-01T05:58:08.059Z,34.06
2024-02-01T05:59:08.039Z,34.07
2024-02-01T06:00:08.235Z,34.06
2024-02-01T06:01:08.193Z,34.07
2024-02-01T06:02:08.244Z,34.07
2024-02-01T06:03:08.276Z,34.13
2024-02-01T06:04:08.367Z,34.10
2024-02-01T06:05:08.352Z,34.08
2024-02-01T06:06:08.491Z,34.09
2024-02-01T06:07:08.504Z,34.10
2024-02-01T06:08:08.481Z,34.09
2024-02-01T06:09:08.621Z,34.07
2024-02-01T06:10:08.591Z,34.09
2024-02-01T06:11:08.638Z,34.08
2024-02-01T06:12:08.708Z,34.10
2024-02-01T06:13:08.737Z,34.07
2024-02-01T06:14:08.794Z,34.10
2024-02-01T06:15:09.107Z,34.11
2024-02-01T06:16:09.005Z,34.11
2024-02-01T06:17:08.922Z,34.13
2024-02-01T06:18:09.122Z,34.13
2024-02-01T06:19:09.115Z,34.11
2024-02-01T06:20:09.061Z,34.08
2024-02-01T06:21:09.132Z,34.09
2024-02-01T06:22:09.123Z,34.17
2024-02-01T06:23:09.194Z,34.09
2024-02-01T06:24:09.258Z,34.08
2024-02-01T06:25:09.267Z,34.04
2024-02-01T06:26:09.304Z,34.00
2024-02-01T06:27:09.406Z,34.01
2024-02-01T06:28:09.393Z,35.79
2024-02-01T06:29:09.515Z,34.43
2024-02-01T06:30:09.510Z,34.19
2024-02-01T06:31:09.524Z,34.02
2024-02-01T06:32:09.545Z,34.03
2024-02-01T06:33:09.667Z,33.99
2024-02-01T06:34:09.705Z,33.98
2024-02-01T06:35:09.818Z,33.99
2024-02-01T06:36:09.703Z,33.96
2024-02-01T06:37:09.699Z,34.00
2024-02-01T06:38:09.743Z,34.16
2024-02-01T06:39:09.792Z,34.24
2024-02-01T06:40:09.835Z,34.30
2024-02-01T06:41:09.816Z,34.30
2024-02-01T06:42:09.900Z,34.46
2024-02-01T06:43:09.971Z,34.73
2024-02-01T06:44:09.899Z,34.86
2024-02-01T06:45:10.059Z,34.83
2024-02-01T06:46:10.275Z,34.94
2024-02-01T06:47:09.951Z,35.04
2024-02-01T06:48:10.340Z,36.81
2024-02-01T06:49:10.045Z,36.63
2024-02-01T06:50:10.042Z,36.43
2024-02-01T06:51:10.033Z,36.62
2024-02-01T06:52:10.015Z,36.41
2024-02-01T06:53:10.128Z,36.46
2024-02-01T06:54:10.234Z,36.52
2024-02-01T06:55:10.169Z,36.68
2024-02-01T06:56:10.218Z,36.53
2024-02-01T06:57:10.373Z,36.11
2024-02-01T06:58:10.376Z,36.19
2024-02-01T06:59:10.499Z,36.27
2024-02-01T07:00:10.606Z,36.24
2024-02-01T07:01:10.662Z,36.31
2024-02-01T07:02:10.646Z,36.28
2024-02-01T07:03:10.878Z,36.16
2024-02-01T07:04:10.822Z,36.22
2024-02-01T07:05:10.909Z,36.18
2024-02-01T07:06:11.021Z,36.16
2024-02-01T07:07:11.531Z,36.10
2024-02-01T07:08:11.102Z,36.08
2024-02-01T07:09:11.199Z,36.06
2024-02-01T07:10:11.215Z,36.02
2024-02-01T07:11:11.284Z,36.07
2024-02-01T07:12:11.708Z,36.02
2024-02-01T07:13:11.414Z,36.04
2024-02-01T07:14:11.493Z,36.00
2024-02-01T07:15:11.541Z,36.01
2024-02-01T07:16:11.593Z,36.00
2024-02-01T07:17:11.658Z,35.96
2024-02-01T07:18:11.815Z,35.99
2024-02-01T07:19:12.081Z,35.96
2024-02-01T07:20:11.810Z,35.98
2024-02-01T07:21:11.880Z,35.98
2024-02-01T07:22:11.895Z,35.98
2024-02-01T07:23:11.933Z,35.93
2024-02-01T07:24:11.988Z,35.94
2024-02-01T07:25:12.006Z,35.97
2024-02-01T07:26:12.026Z,35.98
2024-02-01T07:27:12.095Z,35.92
2024-02-01T07:28:12.118Z,35.94
2024-02-01T07:29:12.150Z,35.96
2024-02-01T07:30:12.231Z,35.91
2024-02-01T07:31:12.229Z,35.94
2024-02-01T07:32:12.265Z,35.91
2024-02-01T07:33:12.345Z,35.87
2024-02-01T07:34:12.511Z,35.89
2024-02-01T07:35:12.417Z,35.91
2024-02-01T07:36:12.467Z,35.87
2024-02-01T07:37:12.480Z,35.86
2024-02-01T07:38:12.512Z,35.87
2024-02-01T07:39:12.582Z,35.90
2024-02-01T07:40:12.621Z,35.90
2024-02-01T07:41:12.659Z,35.85
2024-02-01T07:42:12.715Z,35.86
2024-02-01T07:43:12.735Z,35.87
2024-02-01T07:44:12.781Z,35.77
2024-02-01T07:45:12.901Z,35.82
2024-02-01T07:46:12.867Z,35.77
2024-02-01T07:47:12.878Z,35.81
2024-02-01T07:48:13.024Z,35.77
2024-02-01T07:49:13.114Z,35.76
2024-02-01T07:50:13.003Z,35.74
2024-02-01T07:51:13.159Z,35.68
2024-02-01T07:52:13.058Z,35.53
2024-02-01T07:53:13.072Z,35.19
2024-02-01T07:54:13.095Z,34.55
2024-02-01T07:55:13.082Z,35.03
2024-02-01T07:56:13.104Z,34.86
2024-02-01T07:57:13.268Z,35.04
2024-02-01T07:58:13.126Z,35.21
2024-02-01T07:59:13.115Z,35.57
2024-02-01T08:00:13.170Z,35.64
2024-02-01T08:01:13.207Z,35.87
2024-02-01T08:02:13.281Z,36.10
2024-02-01T08:03:14.008Z,36.36
2024-02-01T08:04:13.447Z,36.65
2024-02-01T08:05:13.470Z,36.84
2024-02-01T08:06:13.601Z,37.01
2024-02-01T08:07:13.704Z,37.13
2024-02-01T08:08:13.640Z,37.29
2024-02-01T08:09:13.831Z,37.37
2024-02-01T08:10:13.716Z,37.02
2024-02-01T08:11:13.783Z,36.94
2024-02-01T08:12:13.822Z,36.72
2024-02-01T08:13:13.882Z,36.42
2024-02-01T08:14:13.933Z,36.06
2024-02-01T08:15:14.041Z,35.78
2024-02-01T08:16:14.049Z,35.37
2024-02-01T08:17:14.089Z,35.21
2024-02-01T08:18:14.245Z,35.05
2024-02-01T08:19:20.338Z,34.79
2024-02-01T08:20:15.306Z,34.35
2024-02-01T08:21:14.260Z,34.14
2024-02-01T08:22:14.235Z,34.03
2024-02-01T08:23:14.251Z,33.84
2024-02-01T08:24:14.270Z,33.49
2024-02-01T08:25:14.245Z,33.35
2024-02-01T08:26:14.250Z,33.25
2024-02-01T08:27:14.307Z,33.09
2024-02-01T08:28:14.287Z,33.00
2024-02-01T08:29:14.329Z,32.95
2024-02-01T08:30:14.452Z,32.83
2024-02-01T08:31:14.391Z,32.69
2024-02-01T08:32:14.402Z,32.66
2024-02-01T08:33:14.478Z,32.42
2024-02-01T08:34:14.561Z,32.24
2024-02-01T08:35:14.506Z,32.09
2024-02-01T08:36:14.537Z,31.95
2024-02-01T08:37:14.504Z,32.01
2024-02-01T08:38:14.525Z,31.92
2024-02-01T08:39:14.558Z,31.72
2024-02-01T08:40:14.541Z,31.60
2024-02-01T08:41:14.522Z,31.45
2024-02-01T08:42:14.837Z,31.43
2024-02-01T08:43:14.540Z,31.37
2024-02-01T08:44:14.582Z,31.25
2024-02-01T08:45:14.606Z,31.16
2024-02-01T08:46:14.608Z,31.25
2024-02-01T08:47:15.033Z,31.05
2024-02-01T08:48:15.074Z,30.53
2024-02-01T08:49:14.701Z,29.89
2024-02-01T08:50:14.663Z,30.44
2024-02-01T08:51:14.658Z,30.71
2024-02-01T08:52:14.653Z,30.85
2024-02-01T08:53:14.676Z,30.91
2024-02-01T08:54:14.910Z,31.02
2024-02-01T08:55:14.835Z,31.14
2024-02-01T08:56:14.706Z,31.27
2024-02-01T08:57:14.791Z,31.45
2024-02-01T08:58:14.774Z,31.61
2024-02-01T08:59:14.798Z,31.76
2024-02-01T09:00:14.900Z,31.97
2024-02-01T09:01:14.958Z,31.97
2024-02-01T09:02:15.014Z,32.13
2024-02-01T09:03:15.103Z,32.26
2024-02-01T09:04:15.805Z,32.45
2024-02-01T09:05:15.266Z,32.46
2024-02-01T09:06:15.489Z,32.50
2024-02-01T09:07:15.415Z,32.63
2024-02-01T09:08:15.371Z,32.74
2024-02-01T09:09:15.449Z,32.82
2024-02-01T09:10:21.341Z,32.86
2024-02-01T09:11:16.456Z,32.97
2024-02-01T09:12:15.516Z,33.11
2024-02-01T09:13:15.471Z,33.22
2024-02-01T09:14:15.475Z,33.33
2024-02-01T09:15:15.738Z,33.39
2024-02-01T09:16:15.488Z,33.48
2024-02-01T09:17:15.479Z,33.49
2024-02-01T09:18:15.582Z,33.74
2024-02-01T09:19:15.613Z,33.88
2024-02-01T09:20:15.501Z,33.85
2024-02-01T09:21:15.528Z,33.89
2024-02-01T09:22:15.485Z,33.94
2024-02-01T09:23:15.490Z,34.00
2024-02-01T09:24:15.504Z,33.95
2024-02-01T09:25:15.472Z,34.03
2024-02-01T09:26:15.490Z,34.06
2024-02-01T09:27:15.534Z,34.17
2024-02-01T09:28:15.534Z,34.22
2024-02-01T09:29:15.634Z,34.21
2024-02-01T09:30:22.970Z,34.38
2024-02-01T09:31:23.013Z,34.36
2024-02-01T09:32:22.909Z,34.52
2024-02-01T09:33:23.047Z,34.60
2024-02-01T09:34:23.116Z,34.65
2024-02-01T09:35:22.977Z,34.71
2024-02-01T09:36:23.067Z,34.84
2024-02-01T09:37:24.973Z,34.97
2024-02-01T09:38:23.011Z,35.06
2024-02-01T09:39:23.041Z,35.10
2024-02-01T09:40:23.046Z,35.21
2024-02-01T09:41:23.051Z,35.35
2024-02-01T09:42:23.109Z,35.39
2024-02-01T09:43:23.123Z,35.44
2024-02-01T09:44:23.134Z,35.48
2024-02-01T09:45:23.152Z,35.64
2024-02-01T09:46:23.267Z,35.72
2024-02-01T09:47:23.185Z,35.71
2024-02-01T09:48:23.417Z,35.86
2024-02-01T09:49:28.374Z,35.87
2024-02-01T09:50:24.307Z,36.06
2024-02-01T09:51:23.304Z,36.10
2024-02-01T09:52:23.262Z,36.15
2024-02-01T09:53:23.359Z,36.28
2024-02-01T09:54:23.425Z,36.45
2024-02-01T09:55:23.288Z,36.72
2024-02-01T09:56:23.254Z,36.72
2024-02-01T09:57:23.444Z,36.81
2024-02-01T09:58:23.296Z,36.78
2024-02-01T09:59:23.302Z,36.90
2024-02-01T10:00:23.393Z,37.22
2024-02-01T10:01:23.396Z,37.37
2024-02-01T10:02:23.270Z,37.68
2024-02-01T10:03:23.340Z,37.86
2024-02-01T10:04:24.594Z,37.95
2024-02-01T10:05:23.295Z,37.90
2024-02-01T10:06:23.365Z,38.00
2024-02-01T10:07:23.389Z,38.23
2024-02-01T10:08:23.298Z,38.35
2024-02-01T10:09:24.160Z,38.48
2024-02-01T10:10:23.277Z,38.60
2024-02-01T10:11:23.358Z,38.70
2024-02-01T10:12:23.357Z,38.71
2024-02-01T10:13:23.403Z,38.74
2024-02-01T10:14:23.318Z,38.83
2024-02-01T10:15:23.287Z,39.04
2024-02-01T10:16:23.290Z,39.13
2024-02-01T10:17:23.311Z,39.36
2024-02-01T10:18:23.498Z,39.39
2024-02-01T10:19:23.439Z,39.40
2024-02-01T10:20:23.361Z,39.63
2024-02-01T10:21:29.425Z,39.69
2024-02-01T10:22:24.297Z,39.75
2024-02-01T10:23:23.338Z,39.78
2024-02-01T10:24:23.506Z,39.85
2024-02-01T10:25:23.361Z,40.01
2024-02-01T10:26:23.378Z,40.02
2024-02-01T10:27:24.405Z,40.15
2024-02-01T10:28:23.324Z,40.18
2024-02-01T10:29:23.352Z,40.19
2024-02-01T10:30:23.362Z,40.32
2024-02-01T10:31:23.512Z,40.34
2024-02-01T10:32:23.477Z,40.46
2024-02-01T10:33:24.567Z,40.44
2024-02-01T10:34:23.795Z,40.56
2024-02-01T10:35:23.695Z,40.57
2024-02-01T10:36:23.953Z,40.62
2024-02-01T10:37:23.835Z,40.61
2024-02-01T10:38:23.900Z,40.88
2024-02-01T10:39:24.043Z,40.91
2024-02-01T10:40:24.004Z,40.91
2024-02-01T10:41:24.059Z,40.91
2024-02-01T10:42:24.177Z,40.98
2024-02-01T10:43:24.189Z,41.12
2024-02-01T10:44:24.242Z,41.18
2024-02-01T10:45:24.415Z,41.13
2024-02-01T10:46:24.352Z,41.28
2024-02-01T10:47:24.417Z,41.37
2024-02-01T10:48:24.613Z,41.55
2024-02-01T10:49:24.549Z,41.33
2024-02-01T10:50:24.562Z,41.18
2024-02-01T10:51:24.620Z,39.41
2024-02-01T10:52:24.740Z,35.06
2024-02-01T10:53:24.673Z,32.74
2024-02-01T10:54:25.083Z,30.31
2024-02-01T10:55:24.769Z,29.07
2024-02-01T10:56:24.842Z,28.49
2024-02-01T10:57:24.928Z,28.27
2024-02-01T10:58:24.892Z,28.29
2024-02-01T10:59:24.889Z,28.06
2024-02-01T11:00:25.030Z,28.85
2024-02-01T11:01:25.046Z,29.92
2024-02-01T11:02:25.011Z,32.96
2024-02-01T11:03:25.094Z,33.29
2024-02-01T11:04:25.075Z,34.67
2024-02-01T11:05:25.058Z,36.04
2024-02-01T11:06:25.141Z,35.99
2024-02-01T11:07:25.169Z,35.74
2024-02-01T11:08:25.219Z,35.41
2024-02-01T11:09:27.849Z,35.25
2024-02-01T11:10:25.295Z,35.07
2024-02-01T11:11:25.272Z,35.13
2024-02-01T11:12:25.452Z,35.14
2024-02-01T11:13:25.269Z,35.16
2024-02-01T11:14:25.280Z,35.12
2024-02-01T11:15:28.125Z,35.10
2024-02-01T11:16:25.278Z,35.09
2024-02-01T11:17:25.387Z,35.12
2024-02-01T11:18:25.396Z,35.11
2024-02-01T11:19:25.490Z,35.06
2024-02-01T11:20:25.337Z,35.13
2024-02-01T11:21:25.291Z,35.14
2024-02-01T11:22:25.289Z,35.14
2024-02-01T11:23:25.322Z,35.12
2024-02-01T11:24:25.306Z,35.25
2024-02-01T11:25:25.302Z,35.27
2024-02-01T11:26:25.307Z,35.15
2024-02-01T11:27:25.353Z,35.22
2024-02-01T11:28:25.295Z,35.27
2024-02-01T11:29:25.331Z,35.21
2024-02-01T11:30:25.341Z,35.06
2024-02-01T11:31:30.629Z,34.97
2024-02-01T11:32:26.319Z,34.94
2024-02-01T11:33:25.370Z,34.92
2024-02-01T11:34:25.612Z,35.04
2024-02-01T11:35:25.302Z,35.07
2024-02-01T11:36:25.340Z,35.08
2024-02-01T11:37:28.180Z,35.04
2024-02-01T11:38:25.320Z,34.94
2024-02-01T11:39:25.388Z,34.89
2024-02-01T11:40:25.317Z,34.93
2024-02-01T11:41:25.314Z,34.91
2024-02-01T11:42:31.502Z,34.90
2024-02-01T11:43:26.317Z,34.94
2024-02-01T11:44:25.345Z,34.99
2024-02-01T11:45:25.428Z,35.09
2024-02-01T11:46:25.344Z,35.18
2024-02-01T11:47:25.335Z,35.36
2024-02-01T11:48:25.444Z,35.38
2024-02-01T11:49:28.945Z,35.35
2024-02-01T11:50:25.630Z,35.46
2024-02-01T11:51:25.376Z,35.54
2024-02-01T11:52:25.335Z,35.54
2024-02-01T11:53:25.337Z,35.73
2024-02-01T11:54:25.378Z,35.78
2024-02-01T11:55:27.196Z,35.84
2024-02-01T11:56:25.359Z,35.91
2024-02-01T11:57:25.389Z,35.99
2024-02-01T11:58:25.341Z,36.04
2024-02-01T11:59:25.362Z,36.10
2024-02-01T12:00:38.174Z,36.16
2024-02-01T12:01:28.984Z,36.20
2024-02-01T12:02:25.353Z,36.38
2024-02-01T12:03:25.449Z,36.40
2024-02-01T12:04:25.377Z,36.54
2024-02-01T12:05:25.346Z,36.60
2024-02-01T12:06:25.418Z,36.74
2024-02-01T12:07:25.438Z,36.88
2024-02-01T12:08:25.360Z,36.95
2024-02-01T12:09:25.365Z,37.10
2024-02-01T12:10:25.350Z,37.40
2024-02-01T12:11:25.481Z,37.45
2024-02-01T12:12:25.441Z,37.63
2024-02-01T12:13:25.461Z,37.65
2024-02-01T12:14:25.362Z,37.73
2024-02-01T12:15:25.356Z,37.88
2024-02-01T12:16:25.356Z,38.02
2024-02-01T12:17:25.392Z,38.07
2024-02-01T12:18:25.507Z,38.09
2024-02-01T12:19:25.569Z,38.12
2024-02-01T12:20:25.357Z,38.31
2024-02-01T12:21:25.381Z,38.39
2024-02-01T12:22:25.364Z,38.58
2024-02-01T12:23:25.357Z,38.60
2024-02-01T12:24:25.407Z,38.66
2024-02-01T12:25:25.368Z,38.69
2024-02-01T12:26:27.371Z,38.78
2024-02-01T12:27:25.417Z,38.79
2024-02-01T12:28:25.376Z,38.92
2024-02-01T12:29:26.086Z,38.94
2024-02-01T12:30:25.477Z,38.99
2024-02-01T12:31:25.384Z,39.04
2024-02-01T12:32:25.380Z,39.05
2024-02-01T12:33:25.534Z,39.11
2024-02-01T12:34:25.493Z,39.24
2024-02-01T12:35:25.364Z,39.31
2024-02-01T12:36:25.409Z,39.38
2024-02-01T12:37:25.369Z,39.56
2024-02-01T12:38:25.383Z,39.51
2024-02-01T12:39:25.398Z,39.62
2024-02-01T12:40:25.393Z,39.66
2024-02-01T12:41:25.368Z,39.64
2024-02-01T12:42:25.396Z,39.57
2024-02-01T12:43:25.463Z,39.60
2024-02-01T12:44:25.400Z,39.62
2024-02-01T12:45:25.438Z,39.64
2024-02-01T12:46:25.811Z,39.65
2024-02-01T12:47:25.365Z,39.67
2024-02-01T12:48:25.511Z,39.63
2024-02-01T12:49:25.665Z,39.65
2024-02-01T12:50:25.374Z,39.65
2024-02-01T12:51:25.417Z,39.67
2024-02-01T12:52:25.381Z,39.65
2024-02-01T12:53:25.382Z,39.66